LFRB/BES METAR and TAF weather

Enter ICAO airport designator
Station Type Date Time Source
LFRB METAR 2021/10/20 06:30 UTC NOAA

LFRB 200630Z AUTO 23018KT 9999 BKN008/// OVC012/// ///TCU 16/15 Q1007 TEMPO 3000 SHRA BKN012CB BECMG 22015G25KT


Station Type Date Time Source
LFRB Decoded METAR 2021/10/20 06:30 UTC NOAA

Brest, France (LFRB) 48-27N 004-25W 103M
Oct 20, 2021 - 02:30 AM EDT / 2021.10.20 0630 UTC
Wind: from the SW (230 degrees) at 21 MPH (18 KT):0
Visibility: greater than 7 mile(s):0
Sky conditions: overcast
Weather: Cumulonimbus clouds, towering cumulus clouds observed
Temperature: 60 F (16 C)
Dew Point: 59 F (15 C)
Relative Humidity: 93%
Pressure (altimeter): 29.74 in. Hg (1007 hPa)
ob: LFRB 200630Z AUTO 23018KT 9999 BKN008/// OVC012/// ///TCU 16/15 Q1007 TEMPO 3000 SHRA BKN012CB BECMG 22015G25KT
cycle: 6

Station Type Date Time Source
LFRB TAF 2021/10/20 06:21 UTC NOAA

TAF LFRB 200500Z 2006/2112 22015G25KT 9999 BKN020
TEMPO 2006/2008 SHRA BKN006 SCT020TCU
TEMPO 2008/2102 3000 SHRA BKN012CB PROB30
TEMPO 2008/2015 TSRA
BECMG 2013/2015 21020G35KT PROB40
TEMPO 2015/2022 22025G45KT 2000 TSRAGR BKN012CB
BECMG 2020/2022 31025G40KT
BECMG 2022/2024 28015G25KT
BECMG 2102/2104 27012KT
TEMPO 2102/2112 28015G25KT 4000 SHRA BKN020TCU PROB40
TEMPO 2106/2112 3000 SHRA BKN012CB
BECMG 2109/2112 36012KT

Example: see airport list